sensor_id;sensor_type;location;lat;lon;timestamp;temperature;humidity
19192;DHT22;9728;48.194;16.346;2023-02-18T00:00:24;19.70;65.50
19192;DHT22;9728;48.194;16.346;2023-02-18T00:05:29;19.60;65.70
19192;DHT22;9728;48.194;16.346;2023-02-18T00:10:33;19.60;57.00
19192;DHT22;9728;48.194;16.346;2023-02-18T00:15:37;19.90;55.20
19192;DHT22;9728;48.194;16.346;2023-02-18T00:20:41;19.70;55.20
19192;DHT22;9728;48.194;16.346;2023-02-18T00:25:45;19.70;55.10
19192;DHT22;9728;48.194;16.346;2023-02-18T00:30:48;19.60;55.50
19192;DHT22;9728;48.194;16.346;2023-02-18T00:36:00;20.20;56.40
19192;DHT22;9728;48.194;16.346;2023-02-18T00:41:04;19.40;55.40
19192;DHT22;9728;48.194;16.346;2023-02-18T00:46:08;19.60;55.40
19192;DHT22;9728;48.194;16.346;2023-02-18T00:51:13;19.60;55.80
19192;DHT22;9728;48.194;16.346;2023-02-18T00:56:17;19.60;55.10
19192;DHT22;9728;48.194;16.346;2023-02-18T01:01:20;19.60;55.40
19192;DHT22;9728;48.194;16.346;2023-02-18T01:06:25;19.60;55.90
19192;DHT22;9728;48.194;16.346;2023-02-18T01:11:28;19.60;55.40
19192;DHT22;9728;48.194;16.346;2023-02-18T01:16:33;19.60;55.60
19192;DHT22;9728;48.194;16.346;2023-02-18T01:21:39;19.60;55.80
19192;DHT22;9728;48.194;16.346;2023-02-18T01:26:42;19.70;55.30
19192;DHT22;9728;48.194;16.346;2023-02-18T01:31:46;19.60;56.00
19192;DHT22;9728;48.194;16.346;2023-02-18T01:36:51;19.60;55.90
19192;DHT22;9728;48.194;16.346;2023-02-18T01:41:54;19.60;55.10
19192;DHT22;9728;48.194;16.346;2023-02-18T01:46:57;19.60;54.60
19192;DHT22;9728;48.194;16.346;2023-02-18T01:52:05;19.60;55.20
19192;DHT22;9728;48.194;16.346;2023-02-18T01:57:13;19.60;55.90
19192;DHT22;9728;48.194;16.346;2023-02-18T02:02:20;19.60;55.30
19192;DHT22;9728;48.194;16.346;2023-02-18T02:07:26;19.70;55.50
19192;DHT22;9728;48.194;16.346;2023-02-18T02:12:38;19.60;55.40
19192;DHT22;9728;48.194;16.346;2023-02-18T02:17:52;19.60;55.50
19192;DHT22;9728;48.194;16.346;2023-02-18T02:29:06;19.60;56.00
19192;DHT22;9728;48.194;16.346;2023-02-18T02:34:37;19.70;56.00
19192;DHT22;9728;48.194;16.346;2023-02-18T02:39:55;19.70;55.90
19192;DHT22;9728;48.194;16.346;2023-02-18T02:45:05;19.80;55.90
19192;DHT22;9728;48.194;16.346;2023-02-18T02:50:16;19.80;55.70
19192;DHT22;9728;48.194;16.346;2023-02-18T02:55:22;19.80;55.80
19192;DHT22;9728;48.194;16.346;2023-02-18T03:00:36;19.90;55.30
19192;DHT22;9728;48.194;16.346;2023-02-18T03:06:00;19.80;55.40
19192;DHT22;9728;48.194;16.346;2023-02-18T03:11:10;19.80;55.40
19192;DHT22;9728;48.194;16.346;2023-02-18T03:16:20;19.80;55.60
19192;DHT22;9728;48.194;16.346;2023-02-18T03:21:30;19.80;55.50
19192;DHT22;9728;48.194;16.346;2023-02-18T03:26:41;19.80;55.50
19192;DHT22;9728;48.194;16.346;2023-02-18T03:31:49;19.80;55.50
19192;DHT22;9728;48.194;16.346;2023-02-18T03:36:54;19.70;55.40
19192;DHT22;9728;48.194;16.346;2023-02-18T03:41:59;19.70;55.40
19192;DHT22;9728;48.194;16.346;2023-02-18T03:47:03;19.70;55.60
19192;DHT22;9728;48.194;16.346;2023-02-18T03:52:08;19.80;55.60
19192;DHT22;9728;48.194;16.346;2023-02-18T03:57:12;19.80;55.80
19192;DHT22;9728;48.194;16.346;2023-02-18T04:02:15;19.70;55.40
19192;DHT22;9728;48.194;16.346;2023-02-18T04:07:20;19.80;55.40
19192;DHT22;9728;48.194;16.346;2023-02-18T04:12:23;19.80;55.40
19192;DHT22;9728;48.194;16.346;2023-02-18T04:17:27;19.70;55.10
19192;DHT22;9728;48.194;16.346;2023-02-18T04:22:31;19.70;55.30
19192;DHT22;9728;48.194;16.346;2023-02-18T04:27:35;19.70;55.30
19192;DHT22;9728;48.194;16.346;2023-02-18T04:32:38;19.70;55.60
19192;DHT22;9728;48.194;16.346;2023-02-18T04:37:43;19.60;55.50
19192;DHT22;9728;48.194;16.346;2023-02-18T04:42:46;19.60;55.50
19192;DHT22;9728;48.194;16.346;2023-02-18T04:47:49;19.60;55.40
19192;DHT22;9728;48.194;16.346;2023-02-18T04:52:54;19.60;55.40
19192;DHT22;9728;48.194;16.346;2023-02-18T04:57:58;19.60;55.40
19192;DHT22;9728;48.194;16.346;2023-02-18T05:03:01;19.60;55.20
19192;DHT22;9728;48.194;16.346;2023-02-18T05:08:06;19.60;55.20
19192;DHT22;9728;48.194;16.346;2023-02-18T05:13:09;19.70;55.40
19192;DHT22;9728;48.194;16.346;2023-02-18T05:18:12;19.70;55.40
19192;DHT22;9728;48.194;16.346;2023-02-18T05:23:17;19.70;55.30
19192;DHT22;9728;48.194;16.346;2023-02-18T05:28:22;19.70;55.10
19192;DHT22;9728;48.194;16.346;2023-02-18T05:33:25;19.70;55.00
19192;DHT22;9728;48.194;16.346;2023-02-18T05:38:30;19.70;55.00
19192;DHT22;9728;48.194;16.346;2023-02-18T05:43:34;19.70;55.10
19192;DHT22;9728;48.194;16.346;2023-02-18T05:48:57;19.70;55.30
19192;DHT22;9728;48.194;16.346;2023-02-18T05:54:02;19.70;55.10
19192;DHT22;9728;48.194;16.346;2023-02-18T05:59:06;19.70;55.00
19192;DHT22;9728;48.194;16.346;2023-02-18T06:04:10;19.60;55.20
19192;DHT22;9728;48.194;16.346;2023-02-18T06:09:15;19.60;55.20
19192;DHT22;9728;48.194;16.346;2023-02-18T06:14:18;19.70;55.40
19192;DHT22;9728;48.194;16.346;2023-02-18T06:19:22;19.70;55.30
19192;DHT22;9728;48.194;16.346;2023-02-18T06:24:26;19.70;55.10
19192;DHT22;9728;48.194;16.346;2023-02-18T06:29:30;19.70;55.00
19192;DHT22;9728;48.194;16.346;2023-02-18T06:34:33;19.70;55.10
19192;DHT22;9728;48.194;16.346;2023-02-18T06:39:39;19.80;55.10
19192;DHT22;9728;48.194;16.346;2023-02-18T06:44:44;19.80;55.10
19192;DHT22;9728;48.194;16.346;2023-02-18T06:49:47;19.80;55.00
19192;DHT22;9728;48.194;16.346;2023-02-18T06:54:52;19.80;54.90
19192;DHT22;9728;48.194;16.346;2023-02-18T06:59:56;19.90;55.10
19192;DHT22;9728;48.194;16.346;2023-02-18T07:04:59;19.90;55.10
19192;DHT22;9728;48.194;16.346;2023-02-18T07:10:06;19.90;55.00
19192;DHT22;9728;48.194;16.346;2023-02-18T07:15:10;19.90;55.00
19192;DHT22;9728;48.194;16.346;2023-02-18T07:20:13;19.90;54.70
19192;DHT22;9728;48.194;16.346;2023-02-18T07:25:18;19.90;54.40
19192;DHT22;9728;48.194;16.346;2023-02-18T07:30:24;20.00;54.50
19192;DHT22;9728;48.194;16.346;2023-02-18T07:35:27;19.90;54.40
19192;DHT22;9728;48.194;16.346;2023-02-18T07:40:32;19.90;54.40
19192;DHT22;9728;48.194;16.346;2023-02-18T07:45:43;19.90;54.60
19192;DHT22;9728;48.194;16.346;2023-02-18T07:50:47;19.90;54.80
19192;DHT22;9728;48.194;16.346;2023-02-18T07:55:51;19.90;54.90
19192;DHT22;9728;48.194;16.346;2023-02-18T08:00:55;19.90;55.10
19192;DHT22;9728;48.194;16.346;2023-02-18T08:05:59;19.90;55.30
19192;DHT22;9728;48.194;16.346;2023-02-18T08:11:04;19.90;55.50
19192;DHT22;9728;48.194;16.346;2023-02-18T08:16:20;19.90;55.60
19192;DHT22;9728;48.194;16.346;2023-02-18T08:21:25;19.90;55.40
19192;DHT22;9728;48.194;16.346;2023-02-18T08:26:30;19.80;55.50
19192;DHT22;9728;48.194;16.346;2023-02-18T08:32:02;19.80;55.60
19192;DHT22;9728;48.194;16.346;2023-02-18T08:37:08;19.80;55.60
19192;DHT22;9728;48.194;16.346;2023-02-18T08:42:13;19.90;55.70
19192;DHT22;9728;48.194;16.346;2023-02-18T08:47:17;19.90;55.70
19192;DHT22;9728;48.194;16.346;2023-02-18T08:52:42;19.90;55.80
19192;DHT22;9728;48.194;16.346;2023-02-18T08:57:50;19.90;55.80
19192;DHT22;9728;48.194;16.346;2023-02-18T09:02:55;19.90;56.40
19192;DHT22;9728;48.194;16.346;2023-02-18T09:08:00;19.80;56.20
19192;DHT22;9728;48.194;16.346;2023-02-18T09:13:19;19.90;56.90
19192;DHT22;9728;48.194;16.346;2023-02-18T09:18:23;19.90;57.40
19192;DHT22;9728;48.194;16.346;2023-02-18T09:23:28;19.90;58.60
19192;DHT22;9728;48.194;16.346;2023-02-18T09:28:34;19.70;57.20
19192;DHT22;9728;48.194;16.346;2023-02-18T09:33:48;20.00;58.20
19192;DHT22;9728;48.194;16.346;2023-02-18T09:38:52;19.90;58.30
19192;DHT22;9728;48.194;16.346;2023-02-18T09:43:59;20.00;58.60
19192;DHT22;9728;48.194;16.346;2023-02-18T09:49:12;20.40;58.30
19192;DHT22;9728;48.194;16.346;2023-02-18T09:54:18;20.00;57.20
19192;DHT22;9728;48.194;16.346;2023-02-18T09:59:24;20.00;56.70
19192;DHT22;9728;48.194;16.346;2023-02-18T10:04:41;19.80;56.60
19192;DHT22;9728;48.194;16.346;2023-02-18T10:09:48;19.80;56.60
19192;DHT22;9728;48.194;16.346;2023-02-18T10:14:57;19.80;56.40
19192;DHT22;9728;48.194;16.346;2023-02-18T10:20:02;19.80;56.70
19192;DHT22;9728;48.194;16.346;2023-02-18T10:25:18;19.80;56.00
19192;DHT22;9728;48.194;16.346;2023-02-18T10:30:28;19.80;57.00
19192;DHT22;9728;48.194;16.346;2023-02-18T10:35:38;19.90;56.90
19192;DHT22;9728;48.194;16.346;2023-02-18T10:40:52;19.90;56.90
19192;DHT22;9728;48.194;16.346;2023-02-18T10:46:06;20.00;56.40
19192;DHT22;9728;48.194;16.346;2023-02-18T10:51:17;20.00;55.50
19192;DHT22;9728;48.194;16.346;2023-02-18T10:56:33;20.10;55.50
19192;DHT22;9728;48.194;16.346;2023-02-18T11:01:39;20.10;56.20
19192;DHT22;9728;48.194;16.346;2023-02-18T11:06:44;20.10;56.80
19192;DHT22;9728;48.194;16.346;2023-02-18T11:11:48;20.10;55.30
19192;DHT22;9728;48.194;16.346;2023-02-18T11:17:21;20.10;55.60
19192;DHT22;9728;48.194;16.346;2023-02-18T11:22:30;20.10;55.90
19192;DHT22;9728;48.194;16.346;2023-02-18T11:27:40;20.30;55.90
19192;DHT22;9728;48.194;16.346;2023-02-18T11:32:47;20.20;55.30
19192;DHT22;9728;48.194;16.346;2023-02-18T11:37:51;20.20;56.80
19192;DHT22;9728;48.194;16.346;2023-02-18T11:43:05;20.40;57.40
19192;DHT22;9728;48.194;16.346;2023-02-18T11:48:15;20.60;58.90
19192;DHT22;9728;48.194;16.346;2023-02-18T11:53:35;20.80;57.90
19192;DHT22;9728;48.194;16.346;2023-02-18T11:58:40;21.10;55.90
19192;DHT22;9728;48.194;16.346;2023-02-18T12:03:53;21.40;56.00
19192;DHT22;9728;48.194;16.346;2023-02-18T12:09:02;21.50;55.40
19192;DHT22;9728;48.194;16.346;2023-02-18T12:14:12;21.70;55.00
19192;DHT22;9728;48.194;16.346;2023-02-18T12:19:33;22.10;53.30
19192;DHT22;9728;48.194;16.346;2023-02-18T12:24:51;22.30;52.50
19192;DHT22;9728;48.194;16.346;2023-02-18T12:35:42;22.70;51.60
19192;DHT22;9728;48.194;16.346;2023-02-18T12:41:05;22.80;50.80
19192;DHT22;9728;48.194;16.346;2023-02-18T12:46:36;22.80;50.20
19192;DHT22;9728;48.194;16.346;2023-02-18T12:52:05;22.70;51.20
19192;DHT22;9728;48.194;16.346;2023-02-18T12:57:35;22.60;50.20
19192;DHT22;9728;48.194;16.346;2023-02-18T13:03:03;22.60;49.80
19192;DHT22;9728;48.194;16.346;2023-02-18T13:08:33;22.50;49.70
19192;DHT22;9728;48.194;16.346;2023-02-18T13:13:44;22.40;49.60
19192;DHT22;9728;48.194;16.346;2023-02-18T13:18:58;22.30;52.20
19192;DHT22;9728;48.194;16.346;2023-02-18T13:24:09;22.30;51.00
19192;DHT22;9728;48.194;16.346;2023-02-18T13:29:21;22.30;53.00
19192;DHT22;9728;48.194;16.346;2023-02-18T13:34:31;22.30;51.50
19192;DHT22;9728;48.194;16.346;2023-02-18T13:39:47;22.40;52.90
19192;DHT22;9728;48.194;16.346;2023-02-18T13:45:06;22.10;52.40
19192;DHT22;9728;48.194;16.346;2023-02-18T13:50:26;22.40;51.20
19192;DHT22;9728;48.194;16.346;2023-02-18T13:55:38;22.30;51.20
19192;DHT22;9728;48.194;16.346;2023-02-18T14:00:49;22.30;50.50
19192;DHT22;9728;48.194;16.346;2023-02-18T14:05:57;22.20;50.30
19192;DHT22;9728;48.194;16.346;2023-02-18T14:11:39;22.10;50.60
19192;DHT22;9728;48.194;16.346;2023-02-18T14:17:13;22.00;49.80
19192;DHT22;9728;48.194;16.346;2023-02-18T14:22:27;22.00;50.00
19192;DHT22;9728;48.194;16.346;2023-02-18T14:27:42;21.90;50.30
19192;DHT22;9728;48.194;16.346;2023-02-18T14:32:57;21.90;50.50
19192;DHT22;9728;48.194;16.346;2023-02-18T14:38:12;21.90;50.60
19192;DHT22;9728;48.194;16.346;2023-02-18T14:43:40;21.90;50.50
19192;DHT22;9728;48.194;16.346;2023-02-18T14:49:16;21.90;50.80
19192;DHT22;9728;48.194;16.346;2023-02-18T14:54:31;22.00;50.80
19192;DHT22;9728;48.194;16.346;2023-02-18T14:59:43;22.00;50.80
19192;DHT22;9728;48.194;16.346;2023-02-18T15:04:49;22.00;50.40
19192;DHT22;9728;48.194;16.346;2023-02-18T15:09:53;22.00;51.20
19192;DHT22;9728;48.194;16.346;2023-02-18T15:15:02;22.00;51.30
19192;DHT22;9728;48.194;16.346;2023-02-18T15:20:07;22.00;51.20
19192;DHT22;9728;48.194;16.346;2023-02-18T15:25:12;22.10;50.80
19192;DHT22;9728;48.194;16.346;2023-02-18T15:30:24;22.00;50.40
19192;DHT22;9728;48.194;16.346;2023-02-18T15:35:31;22.00;50.60
19192;DHT22;9728;48.194;16.346;2023-02-18T15:40:37;22.00;50.10
19192;DHT22;9728;48.194;16.346;2023-02-18T15:45:46;21.90;50.10
19192;DHT22;9728;48.194;16.346;2023-02-18T15:50:53;21.90;49.80
19192;DHT22;9728;48.194;16.346;2023-02-18T15:56:23;21.80;49.90
19192;DHT22;9728;48.194;16.346;2023-02-18T16:01:32;21.80;49.70
19192;DHT22;9728;48.194;16.346;2023-02-18T16:06:37;21.80;50.10
19192;DHT22;9728;48.194;16.346;2023-02-18T16:11:45;21.80;50.30
19192;DHT22;9728;48.194;16.346;2023-02-18T16:17:08;21.70;50.10
19192;DHT22;9728;48.194;16.346;2023-02-18T16:22:24;21.70;49.70
19192;DHT22;9728;48.194;16.346;2023-02-18T16:27:49;21.70;49.90
19192;DHT22;9728;48.194;16.346;2023-02-18T16:32:58;21.60;49.80
19192;DHT22;9728;48.194;16.346;2023-02-18T16:38:02;21.60;50.20
19192;DHT22;9728;48.194;16.346;2023-02-18T16:43:11;21.60;50.10
19192;DHT22;9728;48.194;16.346;2023-02-18T16:48:23;21.50;49.90
19192;DHT22;9728;48.194;16.346;2023-02-18T16:53:29;21.50;49.90
19192;DHT22;9728;48.194;16.346;2023-02-18T16:58:33;21.50;50.20
19192;DHT22;9728;48.194;16.346;2023-02-18T17:03:39;21.40;50.00
19192;DHT22;9728;48.194;16.346;2023-02-18T17:08:49;21.40;50.10
19192;DHT22;9728;48.194;16.346;2023-02-18T17:13:53;21.40;50.50
19192;DHT22;9728;48.194;16.346;2023-02-18T17:19:01;21.30;50.20
19192;DHT22;9728;48.194;16.346;2023-02-18T17:24:05;21.30;50.00
19192;DHT22;9728;48.194;16.346;2023-02-18T17:29:10;21.20;50.50
19192;DHT22;9728;48.194;16.346;2023-02-18T17:34:20;21.20;50.40
19192;DHT22;9728;48.194;16.346;2023-02-18T17:39:29;21.10;49.70
19192;DHT22;9728;48.194;16.346;2023-02-18T17:44:34;21.00;50.00
19192;DHT22;9728;48.194;16.346;2023-02-18T17:49:44;21.00;50.30
19192;DHT22;9728;48.194;16.346;2023-02-18T17:54:48;20.90;50.40
19192;DHT22;9728;48.194;16.346;2023-02-18T17:59:53;20.90;50.30
19192;DHT22;9728;48.194;16.346;2023-02-18T18:05:01;20.90;50.40
19192;DHT22;9728;48.194;16.346;2023-02-18T18:10:07;20.90;50.40
19192;DHT22;9728;48.194;16.346;2023-02-18T18:15:31;20.90;50.60
19192;DHT22;9728;48.194;16.346;2023-02-18T18:20:43;20.80;50.40
19192;DHT22;9728;48.194;16.346;2023-02-18T18:25:49;20.80;50.60
19192;DHT22;9728;48.194;16.346;2023-02-18T18:30:56;20.80;50.50
19192;DHT22;9728;48.194;16.346;2023-02-18T18:36:02;20.70;49.90
19192;DHT22;9728;48.194;16.346;2023-02-18T18:41:10;20.70;50.00
19192;DHT22;9728;48.194;16.346;2023-02-18T18:46:16;20.70;50.00
19192;DHT22;9728;48.194;16.346;2023-02-18T18:51:27;20.60;50.30
19192;DHT22;9728;48.194;16.346;2023-02-18T18:56:36;20.60;50.30
19192;DHT22;9728;48.194;16.346;2023-02-18T19:01:43;20.60;50.40
19192;DHT22;9728;48.194;16.346;2023-02-18T19:07:03;20.60;50.50
19192;DHT22;9728;48.194;16.346;2023-02-18T19:12:08;20.60;50.60
19192;DHT22;9728;48.194;16.346;2023-02-18T19:17:13;20.60;50.60
19192;DHT22;9728;48.194;16.346;2023-02-18T19:22:23;20.60;50.70
19192;DHT22;9728;48.194;16.346;2023-02-18T19:27:27;20.60;50.60
19192;DHT22;9728;48.194;16.346;2023-02-18T19:32:35;20.60;50.70
19192;DHT22;9728;48.194;16.346;2023-02-18T19:37:41;20.50;50.80
19192;DHT22;9728;48.194;16.346;2023-02-18T19:42:46;20.50;50.90
19192;DHT22;9728;48.194;16.346;2023-02-18T19:47:56;20.50;50.80
19192;DHT22;9728;48.194;16.346;2023-02-18T19:53:03;20.50;50.80
19192;DHT22;9728;48.194;16.346;2023-02-18T19:58:07;20.50;51.00
19192;DHT22;9728;48.194;16.346;2023-02-18T20:03:13;20.50;51.00
19192;DHT22;9728;48.194;16.346;2023-02-18T20:08:22;20.50;51.10
19192;DHT22;9728;48.194;16.346;2023-02-18T20:13:26;20.50;51.10
19192;DHT22;9728;48.194;16.346;2023-02-18T20:18:31;20.50;51.20
19192;DHT22;9728;48.194;16.346;2023-02-18T20:23:38;20.50;51.20
19192;DHT22;9728;48.194;16.346;2023-02-18T20:28:45;20.50;51.60
19192;DHT22;9728;48.194;16.346;2023-02-18T20:33:54;20.40;51.70
19192;DHT22;9728;48.194;16.346;2023-02-18T20:39:00;20.30;51.90
19192;DHT22;9728;48.194;16.346;2023-02-18T20:44:18;20.30;51.90
19192;DHT22;9728;48.194;16.346;2023-02-18T20:49:23;20.30;52.20
19192;DHT22;9728;48.194;16.346;2023-02-18T20:54:31;20.30;52.30
19192;DHT22;9728;48.194;16.346;2023-02-18T20:59:35;20.20;52.00
19192;DHT22;9728;48.194;16.346;2023-02-18T21:04:42;20.10;51.90
19192;DHT22;9728;48.194;16.346;2023-02-18T21:09:50;20.10;51.90
19192;DHT22;9728;48.194;16.346;2023-02-18T21:15:00;20.00;52.10
19192;DHT22;9728;48.194;16.346;2023-02-18T21:20:07;20.00;52.00
19192;DHT22;9728;48.194;16.346;2023-02-18T21:25:14;20.00;52.20
19192;DHT22;9728;48.194;16.346;2023-02-18T21:30:19;20.00;52.10
19192;DHT22;9728;48.194;16.346;2023-02-18T21:35:26;20.00;52.00
19192;DHT22;9728;48.194;16.346;2023-02-18T21:40:31;20.00;52.10
19192;DHT22;9728;48.194;16.346;2023-02-18T21:45:37;19.90;52.20
19192;DHT22;9728;48.194;16.346;2023-02-18T21:50:42;19.90;52.30
19192;DHT22;9728;48.194;16.346;2023-02-18T21:55:48;19.90;52.40
19192;DHT22;9728;48.194;16.346;2023-02-18T22:01:05;19.90;52.50
19192;DHT22;9728;48.194;16.346;2023-02-18T22:06:10;19.90;52.60
19192;DHT22;9728;48.194;16.346;2023-02-18T22:11:18;20.00;53.00
19192;DHT22;9728;48.194;16.346;2023-02-18T22:16:21;20.00;52.40
19192;DHT22;9728;48.194;16.346;2023-02-18T22:21:27;19.90;51.90
19192;DHT22;9728;48.194;16.346;2023-02-18T22:26:32;19.90;51.80
19192;DHT22;9728;48.194;16.346;2023-02-18T22:31:36;20.00;51.90
19192;DHT22;9728;48.194;16.346;2023-02-18T22:36:40;20.00;51.90
19192;DHT22;9728;48.194;16.346;2023-02-18T22:41:45;20.10;52.00
19192;DHT22;9728;48.194;16.346;2023-02-18T22:46:48;20.10;51.90
19192;DHT22;9728;48.194;16.346;2023-02-18T22:51:52;20.10;51.90
19192;DHT22;9728;48.194;16.346;2023-02-18T22:56:58;20.10;52.10
19192;DHT22;9728;48.194;16.346;2023-02-18T23:02:01;20.10;52.20
19192;DHT22;9728;48.194;16.346;2023-02-18T23:07:04;20.10;51.70
19192;DHT22;9728;48.194;16.346;2023-02-18T23:12:09;20.10;51.70
19192;DHT22;9728;48.194;16.346;2023-02-18T23:17:13;20.10;51.60
19192;DHT22;9728;48.194;16.346;2023-02-18T23:22:23;20.10;51.60
19192;DHT22;9728;48.194;16.346;2023-02-18T23:27:30;20.10;51.70
19192;DHT22;9728;48.194;16.346;2023-02-18T23:32:34;20.00;51.80
19192;DHT22;9728;48.194;16.346;2023-02-18T23:37:40;20.00;52.10
19192;DHT22;9728;48.194;16.346;2023-02-18T23:43:03;20.10;52.30
19192;DHT22;9728;48.194;16.346;2023-02-18T23:48:06;20.10;52.00
19192;DHT22;9728;48.194;16.346;2023-02-18T23:53:10;20.10;52.60
19192;DHT22;9728;48.194;16.346;2023-02-18T23:58:14;20.10;52.70
